sensor_id;sensor_type;location;lat;lon;timestamp;P1;durP1;ratioP1;P2;durP2;ratioP2
14143;SDS011;7152;48.348;10.980;2023-05-31T00:01:47;4.50;;;2.50;;
14143;SDS011;7152;48.348;10.980;2023-05-31T00:04:12;4.23;;;2.00;;
14143;SDS011;7152;48.348;10.980;2023-05-31T00:06:38;2.77;;;2.50;;
14143;SDS011;7152;48.348;10.980;2023-05-31T00:09:03;3.20;;;2.13;;
14143;SDS011;7152;48.348;10.980;2023-05-31T00:11:29;4.63;;;2.40;;
14143;SDS011;7152;48.348;10.980;2023-05-31T00:13:55;3.57;;;2.27;;
14143;SDS011;7152;48.348;10.980;2023-05-31T00:16:20;4.03;;;2.20;;
14143;SDS011;7152;48.348;10.980;2023-05-31T00:18:46;3.17;;;2.67;;
14143;SDS011;7152;48.348;10.980;2023-05-31T00:21:12;3.03;;;2.30;;
14143;SDS011;7152;48.348;10.980;2023-05-31T00:23:37;2.27;;;1.93;;
14143;SDS011;7152;48.348;10.980;2023-05-31T00:26:03;2.60;;;1.90;;
14143;SDS011;7152;48.348;10.980;2023-05-31T00:28:28;3.67;;;2.43;;
14143;SDS011;7152;48.348;10.980;2023-05-31T00:30:54;4.30;;;2.10;;
14143;SDS011;7152;48.348;10.980;2023-05-31T00:33:20;3.17;;;2.00;;
14143;SDS011;7152;48.348;10.980;2023-05-31T00:35:45;3.80;;;2.40;;
14143;SDS011;7152;48.348;10.980;2023-05-31T00:38:11;5.37;;;1.97;;
14143;SDS011;7152;48.348;10.980;2023-05-31T00:40:38;5.37;;;2.20;;
14143;SDS011;7152;48.348;10.980;2023-05-31T00:43:04;3.30;;;1.93;;
14143;SDS011;7152;48.348;10.980;2023-05-31T00:45:30;4.03;;;2.20;;
14143;SDS011;7152;48.348;10.980;2023-05-31T00:47:58;5.03;;;2.03;;
14143;SDS011;7152;48.348;10.980;2023-05-31T00:50:27;3.73;;;2.30;;
14143;SDS011;7152;48.348;10.980;2023-05-31T00:52:53;4.40;;;1.83;;
14143;SDS011;7152;48.348;10.980;2023-05-31T00:55:21;4.80;;;2.40;;
14143;SDS011;7152;48.348;10.980;2023-05-31T00:57:46;4.50;;;2.50;;
14143;SDS011;7152;48.348;10.980;2023-05-31T01:00:13;4.87;;;2.43;;
14143;SDS011;7152;48.348;10.980;2023-05-31T01:02:40;3.70;;;2.00;;
14143;SDS011;7152;48.348;10.980;2023-05-31T01:05:07;5.07;;;2.30;;
14143;SDS011;7152;48.348;10.980;2023-05-31T01:07:33;4.87;;;2.10;;
14143;SDS011;7152;48.348;10.980;2023-05-31T01:10:00;4.10;;;2.50;;
14143;SDS011;7152;48.348;10.980;2023-05-31T01:15:33;3.30;;;2.33;;
14143;SDS011;7152;48.348;10.980;2023-05-31T01:18:17;3.87;;;2.40;;
14143;SDS011;7152;48.348;10.980;2023-05-31T01:20:51;2.87;;;2.10;;
14143;SDS011;7152;48.348;10.980;2023-05-31T01:29:18;5.47;;;2.70;;
14143;SDS011;7152;48.348;10.980;2023-05-31T01:31:46;4.27;;;2.27;;
14143;SDS011;7152;48.348;10.980;2023-05-31T01:34:13;5.10;;;2.50;;
14143;SDS011;7152;48.348;10.980;2023-05-31T01:36:39;3.00;;;2.50;;
14143;SDS011;7152;48.348;10.980;2023-05-31T01:39:05;3.07;;;2.10;;
14143;SDS011;7152;48.348;10.980;2023-05-31T01:41:33;3.77;;;2.20;;
14143;SDS011;7152;48.348;10.980;2023-05-31T01:44:03;4.87;;;2.10;;
14143;SDS011;7152;48.348;10.980;2023-05-31T01:46:29;4.00;;;2.37;;
14143;SDS011;7152;48.348;10.980;2023-05-31T01:48:55;5.23;;;2.33;;
14143;SDS011;7152;48.348;10.980;2023-05-31T01:51:21;4.70;;;2.30;;
14143;SDS011;7152;48.348;10.980;2023-05-31T01:53:48;6.60;;;2.77;;
14143;SDS011;7152;48.348;10.980;2023-05-31T01:56:14;2.30;;;2.07;;
14143;SDS011;7152;48.348;10.980;2023-05-31T01:58:40;2.83;;;2.10;;
14143;SDS011;7152;48.348;10.980;2023-05-31T02:01:13;4.57;;;2.20;;
14143;SDS011;7152;48.348;10.980;2023-05-31T02:03:41;4.77;;;2.93;;
14143;SDS011;7152;48.348;10.980;2023-05-31T02:06:07;4.40;;;2.43;;
14143;SDS011;7152;48.348;10.980;2023-05-31T02:08:33;5.57;;;2.00;;
14143;SDS011;7152;48.348;10.980;2023-05-31T02:10:59;2.93;;;2.20;;
14143;SDS011;7152;48.348;10.980;2023-05-31T02:13:26;2.70;;;1.93;;
14143;SDS011;7152;48.348;10.980;2023-05-31T02:15:53;7.40;;;2.87;;
14143;SDS011;7152;48.348;10.980;2023-05-31T02:18:19;3.87;;;2.30;;
14143;SDS011;7152;48.348;10.980;2023-05-31T02:20:46;3.73;;;2.27;;
14143;SDS011;7152;48.348;10.980;2023-05-31T02:23:12;4.13;;;2.30;;
14143;SDS011;7152;48.348;10.980;2023-05-31T02:25:38;3.20;;;2.47;;
14143;SDS011;7152;48.348;10.980;2023-05-31T02:28:04;4.70;;;2.43;;
14143;SDS011;7152;48.348;10.980;2023-05-31T02:30:30;3.83;;;2.33;;
14143;SDS011;7152;48.348;10.980;2023-05-31T02:32:56;3.83;;;2.47;;
14143;SDS011;7152;48.348;10.980;2023-05-31T02:35:24;4.23;;;2.57;;
14143;SDS011;7152;48.348;10.980;2023-05-31T02:37:50;3.60;;;2.63;;
14143;SDS011;7152;48.348;10.980;2023-05-31T02:40:16;3.30;;;2.37;;
14143;SDS011;7152;48.348;10.980;2023-05-31T02:42:41;3.60;;;2.40;;
14143;SDS011;7152;48.348;10.980;2023-05-31T02:45:08;5.73;;;2.63;;
14143;SDS011;7152;48.348;10.980;2023-05-31T02:47:35;3.63;;;2.47;;
14143;SDS011;7152;48.348;10.980;2023-05-31T02:50:03;4.17;;;2.57;;
14143;SDS011;7152;48.348;10.980;2023-05-31T02:52:30;3.90;;;2.47;;
14143;SDS011;7152;48.348;10.980;2023-05-31T02:54:56;2.83;;;2.30;;
14143;SDS011;7152;48.348;10.980;2023-05-31T02:57:21;3.57;;;2.83;;
14143;SDS011;7152;48.348;10.980;2023-05-31T02:59:48;8.10;;;2.97;;
14143;SDS011;7152;48.348;10.980;2023-05-31T03:02:14;4.43;;;2.57;;
14143;SDS011;7152;48.348;10.980;2023-05-31T03:04:39;3.90;;;2.50;;
14143;SDS011;7152;48.348;10.980;2023-05-31T03:07:07;3.37;;;2.30;;
14143;SDS011;7152;48.348;10.980;2023-05-31T03:09:32;4.10;;;2.47;;
14143;SDS011;7152;48.348;10.980;2023-05-31T03:11:58;3.93;;;2.33;;
14143;SDS011;7152;48.348;10.980;2023-05-31T03:14:23;2.43;;;2.10;;
14143;SDS011;7152;48.348;10.980;2023-05-31T03:16:49;6.70;;;3.07;;
14143;SDS011;7152;48.348;10.980;2023-05-31T03:19:15;5.13;;;2.33;;
14143;SDS011;7152;48.348;10.980;2023-05-31T03:21:40;6.97;;;2.77;;
14143;SDS011;7152;48.348;10.980;2023-05-31T03:24:06;7.80;;;3.83;;
14143;SDS011;7152;48.348;10.980;2023-05-31T03:26:32;5.93;;;3.10;;
14143;SDS011;7152;48.348;10.980;2023-05-31T03:28:57;7.03;;;3.80;;
14143;SDS011;7152;48.348;10.980;2023-05-31T03:31:23;6.60;;;3.57;;
14143;SDS011;7152;48.348;10.980;2023-05-31T03:33:49;5.30;;;3.20;;
14143;SDS011;7152;48.348;10.980;2023-05-31T03:36:15;5.23;;;2.90;;
14143;SDS011;7152;48.348;10.980;2023-05-31T03:38:41;6.20;;;3.20;;
14143;SDS011;7152;48.348;10.980;2023-05-31T03:41:07;4.63;;;2.90;;
14143;SDS011;7152;48.348;10.980;2023-05-31T03:43:32;4.87;;;3.00;;
14143;SDS011;7152;48.348;10.980;2023-05-31T03:45:58;8.57;;;3.63;;
14143;SDS011;7152;48.348;10.980;2023-05-31T03:48:26;8.33;;;3.50;;
14143;SDS011;7152;48.348;10.980;2023-05-31T03:50:52;6.37;;;3.73;;
14143;SDS011;7152;48.348;10.980;2023-05-31T03:53:18;4.43;;;3.07;;
14143;SDS011;7152;48.348;10.980;2023-05-31T03:55:44;5.50;;;3.30;;
14143;SDS011;7152;48.348;10.980;2023-05-31T03:58:09;4.57;;;2.60;;
14143;SDS011;7152;48.348;10.980;2023-05-31T04:00:35;3.37;;;2.20;;
14143;SDS011;7152;48.348;10.980;2023-05-31T04:03:01;4.63;;;2.43;;
14143;SDS011;7152;48.348;10.980;2023-05-31T04:05:27;4.87;;;2.53;;
14143;SDS011;7152;48.348;10.980;2023-05-31T04:07:53;3.57;;;2.50;;
14143;SDS011;7152;48.348;10.980;2023-05-31T04:10:18;5.17;;;2.37;;
14143;SDS011;7152;48.348;10.980;2023-05-31T04:12:44;4.03;;;2.23;;
14143;SDS011;7152;48.348;10.980;2023-05-31T04:15:10;3.77;;;2.53;;
14143;SDS011;7152;48.348;10.980;2023-05-31T04:17:35;4.13;;;2.60;;
14143;SDS011;7152;48.348;10.980;2023-05-31T04:20:01;5.60;;;2.50;;
14143;SDS011;7152;48.348;10.980;2023-05-31T04:22:32;4.40;;;2.60;;
14143;SDS011;7152;48.348;10.980;2023-05-31T04:24:58;3.17;;;2.60;;
14143;SDS011;7152;48.348;10.980;2023-05-31T04:27:24;6.73;;;2.57;;
14143;SDS011;7152;48.348;10.980;2023-05-31T04:29:50;2.90;;;2.10;;
14143;SDS011;7152;48.348;10.980;2023-05-31T04:32:16;7.13;;;2.87;;
14143;SDS011;7152;48.348;10.980;2023-05-31T04:34:46;2.93;;;2.53;;
14143;SDS011;7152;48.348;10.980;2023-05-31T04:37:13;5.43;;;2.60;;
14143;SDS011;7152;48.348;10.980;2023-05-31T04:39:39;3.57;;;2.33;;
14143;SDS011;7152;48.348;10.980;2023-05-31T04:42:05;3.70;;;2.40;;
14143;SDS011;7152;48.348;10.980;2023-05-31T04:44:34;3.80;;;2.70;;
14143;SDS011;7152;48.348;10.980;2023-05-31T04:47:01;4.53;;;2.60;;
14143;SDS011;7152;48.348;10.980;2023-05-31T04:49:26;4.03;;;2.33;;
14143;SDS011;7152;48.348;10.980;2023-05-31T04:51:52;4.40;;;2.30;;
14143;SDS011;7152;48.348;10.980;2023-05-31T04:54:18;4.13;;;2.40;;
14143;SDS011;7152;48.348;10.980;2023-05-31T04:56:43;4.03;;;2.60;;
14143;SDS011;7152;48.348;10.980;2023-05-31T04:59:09;3.37;;;2.40;;
14143;SDS011;7152;48.348;10.980;2023-05-31T05:01:35;4.20;;;2.13;;
14143;SDS011;7152;48.348;10.980;2023-05-31T05:04:00;5.00;;;2.87;;
14143;SDS011;7152;48.348;10.980;2023-05-31T05:06:26;3.33;;;2.23;;
14143;SDS011;7152;48.348;10.980;2023-05-31T05:08:52;4.27;;;2.30;;
14143;SDS011;7152;48.348;10.980;2023-05-31T05:11:18;3.17;;;2.30;;
14143;SDS011;7152;48.348;10.980;2023-05-31T05:13:44;4.80;;;2.47;;
14143;SDS011;7152;48.348;10.980;2023-05-31T05:16:09;2.87;;;2.20;;
14143;SDS011;7152;48.348;10.980;2023-05-31T05:18:36;3.50;;;2.33;;
14143;SDS011;7152;48.348;10.980;2023-05-31T05:21:01;7.40;;;2.97;;
14143;SDS011;7152;48.348;10.980;2023-05-31T05:23:27;5.37;;;2.80;;
14143;SDS011;7152;48.348;10.980;2023-05-31T05:25:53;4.73;;;3.00;;
14143;SDS011;7152;48.348;10.980;2023-05-31T05:28:19;5.67;;;2.93;;
14143;SDS011;7152;48.348;10.980;2023-05-31T05:30:44;5.73;;;3.00;;
14143;SDS011;7152;48.348;10.980;2023-05-31T05:33:10;3.13;;;2.50;;
14143;SDS011;7152;48.348;10.980;2023-05-31T05:35:35;5.53;;;2.87;;
14143;SDS011;7152;48.348;10.980;2023-05-31T05:38:01;4.60;;;2.73;;
14143;SDS011;7152;48.348;10.980;2023-05-31T05:40:26;4.27;;;2.67;;
14143;SDS011;7152;48.348;10.980;2023-05-31T05:42:53;4.37;;;2.90;;
14143;SDS011;7152;48.348;10.980;2023-05-31T05:45:19;8.67;;;3.17;;
14143;SDS011;7152;48.348;10.980;2023-05-31T05:47:45;4.10;;;2.67;;
14143;SDS011;7152;48.348;10.980;2023-05-31T05:50:11;4.63;;;2.50;;
14143;SDS011;7152;48.348;10.980;2023-05-31T05:52:37;5.57;;;2.60;;
14143;SDS011;7152;48.348;10.980;2023-05-31T05:55:04;4.40;;;2.40;;
14143;SDS011;7152;48.348;10.980;2023-05-31T05:57:29;4.20;;;2.53;;
14143;SDS011;7152;48.348;10.980;2023-05-31T05:59:56;4.90;;;2.40;;
14143;SDS011;7152;48.348;10.980;2023-05-31T06:02:22;4.70;;;2.60;;
14143;SDS011;7152;48.348;10.980;2023-05-31T06:04:48;4.17;;;2.17;;
14143;SDS011;7152;48.348;10.980;2023-05-31T06:07:15;8.50;;;2.70;;
14143;SDS011;7152;48.348;10.980;2023-05-31T06:09:41;7.27;;;2.30;;
14143;SDS011;7152;48.348;10.980;2023-05-31T06:12:08;4.13;;;2.30;;
14143;SDS011;7152;48.348;10.980;2023-05-31T06:14:34;6.23;;;2.77;;
14143;SDS011;7152;48.348;10.980;2023-05-31T06:16:59;7.00;;;2.60;;
14143;SDS011;7152;48.348;10.980;2023-05-31T06:19:25;3.67;;;2.00;;
14143;SDS011;7152;48.348;10.980;2023-05-31T06:21:51;4.73;;;2.80;;
14143;SDS011;7152;48.348;10.980;2023-05-31T06:24:18;5.13;;;2.23;;
14143;SDS011;7152;48.348;10.980;2023-05-31T06:26:44;4.37;;;2.30;;
14143;SDS011;7152;48.348;10.980;2023-05-31T06:29:10;5.53;;;2.20;;
14143;SDS011;7152;48.348;10.980;2023-05-31T06:31:35;5.50;;;2.27;;
14143;SDS011;7152;48.348;10.980;2023-05-31T06:34:01;5.87;;;2.53;;
14143;SDS011;7152;48.348;10.980;2023-05-31T06:36:28;6.47;;;2.50;;
14143;SDS011;7152;48.348;10.980;2023-05-31T06:38:54;6.27;;;2.57;;
14143;SDS011;7152;48.348;10.980;2023-05-31T06:41:19;5.93;;;2.83;;
14143;SDS011;7152;48.348;10.980;2023-05-31T06:43:45;6.60;;;2.13;;
14143;SDS011;7152;48.348;10.980;2023-05-31T06:46:11;3.20;;;2.03;;
14143;SDS011;7152;48.348;10.980;2023-05-31T06:48:37;4.53;;;1.90;;
14143;SDS011;7152;48.348;10.980;2023-05-31T06:51:03;6.30;;;2.30;;
14143;SDS011;7152;48.348;10.980;2023-05-31T06:53:29;5.97;;;2.63;;
14143;SDS011;7152;48.348;10.980;2023-05-31T06:55:54;4.00;;;2.20;;
14143;SDS011;7152;48.348;10.980;2023-05-31T06:58:20;3.53;;;2.43;;
14143;SDS011;7152;48.348;10.980;2023-05-31T07:00:46;4.10;;;2.40;;
14143;SDS011;7152;48.348;10.980;2023-05-31T07:03:12;4.67;;;2.20;;
14143;SDS011;7152;48.348;10.980;2023-05-31T07:05:37;3.97;;;2.27;;
14143;SDS011;7152;48.348;10.980;2023-05-31T07:08:05;4.43;;;2.30;;
14143;SDS011;7152;48.348;10.980;2023-05-31T07:10:32;4.17;;;2.50;;
14143;SDS011;7152;48.348;10.980;2023-05-31T07:12:58;4.70;;;2.37;;
14143;SDS011;7152;48.348;10.980;2023-05-31T07:15:24;6.70;;;2.70;;
14143;SDS011;7152;48.348;10.980;2023-05-31T07:17:50;4.73;;;2.50;;
14143;SDS011;7152;48.348;10.980;2023-05-31T07:20:15;4.33;;;2.40;;
14143;SDS011;7152;48.348;10.980;2023-05-31T07:22:41;5.07;;;2.20;;
14143;SDS011;7152;48.348;10.980;2023-05-31T07:25:07;6.10;;;2.30;;
14143;SDS011;7152;48.348;10.980;2023-05-31T07:27:33;8.27;;;2.53;;
14143;SDS011;7152;48.348;10.980;2023-05-31T07:29:59;5.07;;;1.80;;
14143;SDS011;7152;48.348;10.980;2023-05-31T07:32:24;4.20;;;2.37;;
14143;SDS011;7152;48.348;10.980;2023-05-31T07:34:50;3.97;;;2.50;;
14143;SDS011;7152;48.348;10.980;2023-05-31T07:37:15;5.60;;;2.20;;
14143;SDS011;7152;48.348;10.980;2023-05-31T07:39:43;4.20;;;2.00;;
14143;SDS011;7152;48.348;10.980;2023-05-31T07:42:09;5.70;;;2.50;;
14143;SDS011;7152;48.348;10.980;2023-05-31T07:44:35;6.30;;;2.30;;
14143;SDS011;7152;48.348;10.980;2023-05-31T07:47:00;3.90;;;2.40;;
14143;SDS011;7152;48.348;10.980;2023-05-31T07:49:26;4.87;;;2.53;;
14143;SDS011;7152;48.348;10.980;2023-05-31T07:51:52;4.73;;;2.37;;
14143;SDS011;7152;48.348;10.980;2023-05-31T07:54:17;4.93;;;2.33;;
14143;SDS011;7152;48.348;10.980;2023-05-31T07:56:43;7.77;;;2.80;;
14143;SDS011;7152;48.348;10.980;2023-05-31T07:59:09;4.43;;;2.43;;
14143;SDS011;7152;48.348;10.980;2023-05-31T08:01:34;3.27;;;2.10;;
14143;SDS011;7152;48.348;10.980;2023-05-31T08:04:06;6.37;;;2.70;;
14143;SDS011;7152;48.348;10.980;2023-05-31T08:06:33;5.97;;;2.60;;
14143;SDS011;7152;48.348;10.980;2023-05-31T08:08:59;4.23;;;2.50;;
14143;SDS011;7152;48.348;10.980;2023-05-31T08:11:26;5.13;;;2.30;;
14143;SDS011;7152;48.348;10.980;2023-05-31T08:13:52;5.13;;;2.63;;
14143;SDS011;7152;48.348;10.980;2023-05-31T08:16:18;4.70;;;2.60;;
14143;SDS011;7152;48.348;10.980;2023-05-31T08:18:43;4.33;;;2.27;;
14143;SDS011;7152;48.348;10.980;2023-05-31T08:21:10;4.53;;;2.30;;
14143;SDS011;7152;48.348;10.980;2023-05-31T08:23:36;4.53;;;2.50;;
14143;SDS011;7152;48.348;10.980;2023-05-31T08:26:01;4.93;;;2.53;;
14143;SDS011;7152;48.348;10.980;2023-05-31T08:28:27;5.97;;;2.63;;
14143;SDS011;7152;48.348;10.980;2023-05-31T08:30:54;7.63;;;2.80;;
14143;SDS011;7152;48.348;10.980;2023-05-31T08:33:20;5.93;;;2.43;;
14143;SDS011;7152;48.348;10.980;2023-05-31T08:35:46;5.30;;;2.70;;
14143;SDS011;7152;48.348;10.980;2023-05-31T08:38:12;3.53;;;2.30;;
14143;SDS011;7152;48.348;10.980;2023-05-31T08:40:38;3.30;;;2.30;;
14143;SDS011;7152;48.348;10.980;2023-05-31T08:43:10;7.27;;;2.97;;
14143;SDS011;7152;48.348;10.980;2023-05-31T08:45:41;5.13;;;2.40;;
14143;SDS011;7152;48.348;10.980;2023-05-31T08:48:15;6.50;;;2.77;;
14143;SDS011;7152;48.348;10.980;2023-05-31T08:50:50;4.77;;;2.23;;
14143;SDS011;7152;48.348;10.980;2023-05-31T08:53:17;6.00;;;2.33;;
14143;SDS011;7152;48.348;10.980;2023-05-31T08:55:45;4.20;;;2.27;;
14143;SDS011;7152;48.348;10.980;2023-05-31T08:58:13;5.93;;;2.87;;
14143;SDS011;7152;48.348;10.980;2023-05-31T09:00:39;4.47;;;1.90;;
14143;SDS011;7152;48.348;10.980;2023-05-31T09:03:06;4.57;;;2.57;;
14143;SDS011;7152;48.348;10.980;2023-05-31T09:05:32;4.43;;;2.47;;
14143;SDS011;7152;48.348;10.980;2023-05-31T09:07:59;4.10;;;2.23;;
14143;SDS011;7152;48.348;10.980;2023-05-31T09:10:25;5.00;;;2.40;;
14143;SDS011;7152;48.348;10.980;2023-05-31T09:12:51;4.73;;;2.13;;
14143;SDS011;7152;48.348;10.980;2023-05-31T09:15:18;2.93;;;2.10;;
14143;SDS011;7152;48.348;10.980;2023-05-31T09:17:47;3.27;;;2.60;;
14143;SDS011;7152;48.348;10.980;2023-05-31T09:20:13;5.47;;;2.20;;
14143;SDS011;7152;48.348;10.980;2023-05-31T09:22:39;4.30;;;2.13;;
14143;SDS011;7152;48.348;10.980;2023-05-31T09:25:05;4.03;;;1.95;;
14143;SDS011;7152;48.348;10.980;2023-05-31T09:27:35;3.42;;;2.17;;
14143;SDS011;7152;48.348;10.980;2023-05-31T09:30:09;3.95;;;2.45;;
14143;SDS011;7152;48.348;10.980;2023-05-31T09:32:36;6.43;;;2.53;;
14143;SDS011;7152;48.348;10.980;2023-05-31T09:35:12;3.93;;;2.27;;
14143;SDS011;7152;48.348;10.980;2023-05-31T09:37:45;4.38;;;2.15;;
14143;SDS011;7152;48.348;10.980;2023-05-31T09:40:12;4.27;;;2.10;;
14143;SDS011;7152;48.348;10.980;2023-05-31T09:42:52;4.57;;;1.83;;
14143;SDS011;7152;48.348;10.980;2023-05-31T09:45:18;4.40;;;2.10;;
14143;SDS011;7152;48.348;10.980;2023-05-31T09:47:45;4.70;;;2.20;;
14143;SDS011;7152;48.348;10.980;2023-05-31T09:50:11;3.83;;;2.45;;
14143;SDS011;7152;48.348;10.980;2023-05-31T09:52:42;3.92;;;2.30;;
14143;SDS011;7152;48.348;10.980;2023-05-31T09:55:09;5.57;;;2.58;;
14143;SDS011;7152;48.348;10.980;2023-05-31T09:57:37;4.57;;;2.22;;
14143;SDS011;7152;48.348;10.980;2023-05-31T10:00:08;4.40;;;2.10;;
14143;SDS011;7152;48.348;10.980;2023-05-31T10:02:51;4.00;;;2.28;;
14143;SDS011;7152;48.348;10.980;2023-05-31T10:05:19;3.65;;;2.30;;
14143;SDS011;7152;48.348;10.980;2023-05-31T10:07:49;5.13;;;2.30;;
14143;SDS011;7152;48.348;10.980;2023-05-31T10:10:16;3.28;;;1.88;;
14143;SDS011;7152;48.348;10.980;2023-05-31T10:15:21;3.90;;;2.22;;
14143;SDS011;7152;48.348;10.980;2023-05-31T10:17:55;4.82;;;2.03;;
14143;SDS011;7152;48.348;10.980;2023-05-31T10:20:23;4.72;;;2.10;;
14143;SDS011;7152;48.348;10.980;2023-05-31T10:22:52;4.20;;;2.22;;
14143;SDS011;7152;48.348;10.980;2023-05-31T10:25:24;4.25;;;2.33;;
14143;SDS011;7152;48.348;10.980;2023-05-31T10:28:00;4.90;;;2.50;;
14143;SDS011;7152;48.348;10.980;2023-05-31T10:30:31;4.53;;;2.38;;
14143;SDS011;7152;48.348;10.980;2023-05-31T10:33:07;4.05;;;2.13;;
14143;SDS011;7152;48.348;10.980;2023-05-31T10:35:35;3.20;;;1.80;;
14143;SDS011;7152;48.348;10.980;2023-05-31T10:38:01;4.10;;;2.00;;
14143;SDS011;7152;48.348;10.980;2023-05-31T10:40:45;3.60;;;2.30;;
14143;SDS011;7152;48.348;10.980;2023-05-31T10:43:27;2.25;;;1.70;;
14143;SDS011;7152;48.348;10.980;2023-05-31T10:45:55;4.95;;;1.70;;
14143;SDS011;7152;48.348;10.980;2023-05-31T10:54:05;3.72;;;1.85;;
14143;SDS011;7152;48.348;10.980;2023-05-31T10:56:31;3.88;;;2.22;;
14143;SDS011;7152;48.348;10.980;2023-05-31T10:58:57;4.20;;;1.80;;
14143;SDS011;7152;48.348;10.980;2023-05-31T11:01:23;2.50;;;2.00;;
14143;SDS011;7152;48.348;10.980;2023-05-31T11:03:54;3.10;;;2.05;;
14143;SDS011;7152;48.348;10.980;2023-05-31T11:06:29;3.67;;;2.08;;
14143;SDS011;7152;48.348;10.980;2023-05-31T11:08:59;2.35;;;1.73;;
14143;SDS011;7152;48.348;10.980;2023-05-31T11:11:42;3.63;;;1.88;;
14143;SDS011;7152;48.348;10.980;2023-05-31T11:19:19;5.07;;;2.22;;
14143;SDS011;7152;48.348;10.980;2023-05-31T11:21:56;3.55;;;1.70;;
14143;SDS011;7152;48.348;10.980;2023-05-31T11:24:38;3.58;;;2.00;;
14143;SDS011;7152;48.348;10.980;2023-05-31T11:27:17;4.13;;;2.20;;
14143;SDS011;7152;48.348;10.980;2023-05-31T11:32:19;4.78;;;2.15;;
14143;SDS011;7152;48.348;10.980;2023-05-31T11:37:28;5.38;;;2.00;;
14143;SDS011;7152;48.348;10.980;2023-05-31T11:39:56;3.72;;;1.98;;
14143;SDS011;7152;48.348;10.980;2023-05-31T11:42:31;4.03;;;2.13;;
14143;SDS011;7152;48.348;10.980;2023-05-31T11:45:02;3.40;;;2.00;;
14143;SDS011;7152;48.348;10.980;2023-05-31T11:47:33;4.43;;;2.00;;
14143;SDS011;7152;48.348;10.980;2023-05-31T11:50:11;5.22;;;1.90;;
14143;SDS011;7152;48.348;10.980;2023-05-31T11:52:40;3.50;;;1.92;;
14143;SDS011;7152;48.348;10.980;2023-05-31T11:55:06;4.38;;;1.70;;
14143;SDS011;7152;48.348;10.980;2023-05-31T11:57:42;5.25;;;1.92;;
14143;SDS011;7152;48.348;10.980;2023-05-31T12:00:09;3.13;;;2.10;;
14143;SDS011;7152;48.348;10.980;2023-05-31T12:02:40;4.47;;;1.90;;
14143;SDS011;7152;48.348;10.980;2023-05-31T12:05:12;4.10;;;2.42;;
14143;SDS011;7152;48.348;10.980;2023-05-31T12:07:38;4.93;;;1.80;;
14143;SDS011;7152;48.348;10.980;2023-05-31T12:10:04;4.30;;;1.77;;
14143;SDS011;7152;48.348;10.980;2023-05-31T12:12:30;3.20;;;1.70;;
14143;SDS011;7152;48.348;10.980;2023-05-31T12:14:58;3.28;;;1.77;;
14143;SDS011;7152;48.348;10.980;2023-05-31T12:17:23;3.17;;;1.92;;
14143;SDS011;7152;48.348;10.980;2023-05-31T12:19:50;3.95;;;1.90;;
14143;SDS011;7152;48.348;10.980;2023-05-31T12:22:16;3.42;;;1.92;;
14143;SDS011;7152;48.348;10.980;2023-05-31T12:24:48;3.15;;;1.90;;
14143;SDS011;7152;48.348;10.980;2023-05-31T12:27:15;3.70;;;2.13;;
14143;SDS011;7152;48.348;10.980;2023-05-31T12:29:42;2.95;;;2.10;;
14143;SDS011;7152;48.348;10.980;2023-05-31T12:32:07;6.18;;;2.15;;
14143;SDS011;7152;48.348;10.980;2023-05-31T12:34:35;3.90;;;1.73;;
14143;SDS011;7152;48.348;10.980;2023-05-31T12:37:08;6.15;;;2.10;;
14143;SDS011;7152;48.348;10.980;2023-05-31T12:39:35;3.35;;;1.85;;
14143;SDS011;7152;48.348;10.980;2023-05-31T12:42:02;6.03;;;2.10;;
14143;SDS011;7152;48.348;10.980;2023-05-31T12:44:29;5.20;;;2.30;;
14143;SDS011;7152;48.348;10.980;2023-05-31T12:47:02;2.67;;;1.67;;
14143;SDS011;7152;48.348;10.980;2023-05-31T12:49:30;3.20;;;1.83;;
14143;SDS011;7152;48.348;10.980;2023-05-31T12:51:57;3.25;;;1.80;;
14143;SDS011;7152;48.348;10.980;2023-05-31T12:54:28;3.90;;;2.00;;
14143;SDS011;7152;48.348;10.980;2023-05-31T12:56:59;4.22;;;2.05;;
14143;SDS011;7152;48.348;10.980;2023-05-31T12:59:26;3.72;;;2.05;;
14143;SDS011;7152;48.348;10.980;2023-05-31T13:01:53;4.55;;;2.22;;
14143;SDS011;7152;48.348;10.980;2023-05-31T13:04:19;3.67;;;2.00;;
14143;SDS011;7152;48.348;10.980;2023-05-31T13:06:44;3.22;;;2.10;;
14143;SDS011;7152;48.348;10.980;2023-05-31T13:09:10;3.15;;;1.80;;
14143;SDS011;7152;48.348;10.980;2023-05-31T13:11:37;2.65;;;1.85;;
14143;SDS011;7152;48.348;10.980;2023-05-31T13:14:03;3.33;;;1.80;;
14143;SDS011;7152;48.348;10.980;2023-05-31T13:16:30;3.53;;;2.30;;
14143;SDS011;7152;48.348;10.980;2023-05-31T13:18:57;3.92;;;2.22;;
14143;SDS011;7152;48.348;10.980;2023-05-31T13:21:23;4.43;;;2.67;;
14143;SDS011;7152;48.348;10.980;2023-05-31T13:23:50;2.75;;;2.22;;
14143;SDS011;7152;48.348;10.980;2023-05-31T13:26:16;5.43;;;2.70;;
14143;SDS011;7152;48.348;10.980;2023-05-31T13:28:42;4.45;;;2.30;;
14143;SDS011;7152;48.348;10.980;2023-05-31T13:31:07;5.22;;;2.30;;
14143;SDS011;7152;48.348;10.980;2023-05-31T13:33:33;4.03;;;2.55;;
14143;SDS011;7152;48.348;10.980;2023-05-31T13:35:59;4.45;;;2.38;;
14143;SDS011;7152;48.348;10.980;2023-05-31T13:38:25;5.20;;;2.60;;
14143;SDS011;7152;48.348;10.980;2023-05-31T13:40:51;3.97;;;2.47;;
14143;SDS011;7152;48.348;10.980;2023-05-31T13:43:17;4.20;;;2.40;;
14143;SDS011;7152;48.348;10.980;2023-05-31T13:45:44;3.25;;;2.60;;
14143;SDS011;7152;48.348;10.980;2023-05-31T13:48:10;5.63;;;2.40;;
14143;SDS011;7152;48.348;10.980;2023-05-31T13:50:38;5.32;;;2.67;;
14143;SDS011;7152;48.348;10.980;2023-05-31T13:53:04;2.65;;;2.35;;
14143;SDS011;7152;48.348;10.980;2023-05-31T13:55:29;3.33;;;2.47;;
14143;SDS011;7152;48.348;10.980;2023-05-31T13:57:55;4.07;;;2.45;;
14143;SDS011;7152;48.348;10.980;2023-05-31T14:00:21;2.47;;;2.17;;
14143;SDS011;7152;48.348;10.980;2023-05-31T14:02:46;3.25;;;2.63;;
14143;SDS011;7152;48.348;10.980;2023-05-31T14:05:12;4.22;;;2.70;;
14143;SDS011;7152;48.348;10.980;2023-05-31T14:07:38;4.03;;;2.72;;
14143;SDS011;7152;48.348;10.980;2023-05-31T14:10:05;5.18;;;2.92;;
14143;SDS011;7152;48.348;10.980;2023-05-31T14:12:31;4.72;;;3.03;;
14143;SDS011;7152;48.348;10.980;2023-05-31T14:14:57;7.90;;;2.83;;
14143;SDS011;7152;48.348;10.980;2023-05-31T14:17:23;4.38;;;2.75;;
14143;SDS011;7152;48.348;10.980;2023-05-31T14:19:49;5.03;;;2.95;;
14143;SDS011;7152;48.348;10.980;2023-05-31T14:22:14;3.55;;;2.83;;
14143;SDS011;7152;48.348;10.980;2023-05-31T14:24:40;3.25;;;2.60;;
14143;SDS011;7152;48.348;10.980;2023-05-31T14:27:05;5.47;;;3.17;;
14143;SDS011;7152;48.348;10.980;2023-05-31T14:29:31;5.75;;;2.95;;
14143;SDS011;7152;48.348;10.980;2023-05-31T14:31:57;4.30;;;2.60;;
14143;SDS011;7152;48.348;10.980;2023-05-31T14:34:23;3.70;;;2.75;;
14143;SDS011;7152;48.348;10.980;2023-05-31T14:36:50;3.25;;;2.95;;
14143;SDS011;7152;48.348;10.980;2023-05-31T14:39:16;3.70;;;2.70;;
14143;SDS011;7152;48.348;10.980;2023-05-31T14:41:42;3.90;;;2.83;;
14143;SDS011;7152;48.348;10.980;2023-05-31T14:44:07;4.45;;;2.90;;
14143;SDS011;7152;48.348;10.980;2023-05-31T14:46:33;4.50;;;3.03;;
14143;SDS011;7152;48.348;10.980;2023-05-31T14:48:59;3.17;;;2.88;;
14143;SDS011;7152;48.348;10.980;2023-05-31T14:51:24;4.50;;;3.13;;
14143;SDS011;7152;48.348;10.980;2023-05-31T14:53:53;3.03;;;2.70;;
14143;SDS011;7152;48.348;10.980;2023-05-31T14:56:19;3.25;;;2.95;;
14143;SDS011;7152;48.348;10.980;2023-05-31T14:58:45;3.25;;;2.85;;
14143;SDS011;7152;48.348;10.980;2023-05-31T15:01:11;3.20;;;2.90;;
14143;SDS011;7152;48.348;10.980;2023-05-31T15:03:37;4.47;;;3.20;;
14143;SDS011;7152;48.348;10.980;2023-05-31T15:06:03;3.53;;;3.22;;
14143;SDS011;7152;48.348;10.980;2023-05-31T15:08:28;3.28;;;3.00;;
14143;SDS011;7152;48.348;10.980;2023-05-31T15:10:54;3.22;;;2.92;;
14143;SDS011;7152;48.348;10.980;2023-05-31T15:13:20;3.90;;;2.78;;
14143;SDS011;7152;48.348;10.980;2023-05-31T15:15:45;5.22;;;3.50;;